Aérodrome :
LOGIN :

S'inscrire | Disclaimer

   EN    FR    IT 

 










Légende :    VFR   VFR Marginal   IFR   IFR Intensif   IFR Très Intensif
Visi : 
Plafond : 
>= 8 km
>= 3000ft
5 à 8 km
1000 à 3000 ft
1500m à 5 km
500 à 1000 ft
800 à 1500m
200 à 500 ft
< 800m
< 200 ft
Symboles :   Orages  Brouillard  Fortes neiges  Fortes précipitations  Vent > 20 kt
SIGMETs :   Divers  Orages  Givrage  Turbulence  Onde Orograph.  Cendres Volcan.







- Altitude de l'aérodrome : 1649 ft
- Code IATA : HHN


EDFH - Frankfurt-Hahn Rhineland-Palatinate

DERNIER METAR :
  • 011720Z 20009KT 9000 -RA BKN009 03/03 Q1003

METARs EXPIRÉS :
  • 011650Z 21008KT 8000 -RA BKN006 03/03 Q1003
  • 011620Z 22010KT 9000 -RA BKN008 03/03 Q1003
  • 011550Z 24013KT 210V270 9000 -RA BKN009 04/03 Q1004
  • 011520Z 24011KT 9000 -DZ BKN013 05/03 Q1004
  • 011450Z 23011KT 9999 -DZ FEW010 BKN015 05/03 Q1003

TAF TAF EDFH
Valide du 01 à 18h jusqu'au 02 à 18h UTC


011700Z 0118/0218 22015G25KT 9999 SCT008 BKN012
TEMPO 0118/0201 3000 RA BKN004
BECMG 0122/0124 26020G35KT
BECMG 0202/0205 SCT025
PROB40
TEMPO 0210/0215 25025G45KT 4500 SHRASN SCT015TCU
BECMG 0214/0217 26015G25KT
Pas de NOTAMs connus pour ce terrain.



MET'MAP, la Météo Aéronautique d'un coup d'oeil ! - Copyright ORBIFLY Décembre 2007 - Disclaimer

ORBIFLY MET'MAP TEAM :

Programmation & Développement : Alexandra Zaïnal
Conception & Développement : Baudouin d'Aumeries
Co-Programmation & Développement : Marc-Olivier Méhu
Soutien technique & logistique : Manuel Goepfert

Contact : metmap@orbifly.com




SOURCES & CREDITS :

   NOAA